createdAt,value
2022-09-24T00:01:35.053Z,99943.20
2022-09-24T00:04:11.931Z,99937.09
2022-09-24T00:06:44.085Z,99936.45
2022-09-24T00:09:16.846Z,99939.19
2022-09-24T00:11:46.007Z,99939.51
2022-09-24T00:14:15.713Z,99932.67
2022-09-24T00:16:45.990Z,99934.56
2022-09-24T00:19:15.563Z,99938.23
2022-09-24T00:21:44.994Z,99939.61
2022-09-24T00:24:18.525Z,99936.66
2022-09-24T00:26:50.798Z,99936.87
2022-09-24T00:29:23.712Z,99936.14
2022-09-24T00:31:53.768Z,99930.55
2022-09-24T00:34:23.104Z,99934.34
2022-09-24T00:36:54.450Z,99924.12
2022-09-24T00:39:24.473Z,99925.17
2022-09-24T00:41:54.156Z,99926.02
2022-09-24T00:44:50.665Z,99921.27
2022-09-24T00:47:39.363Z,99923.05
2022-09-24T00:50:22.291Z,99921.68
2022-09-24T00:53:11.962Z,99918.42
2022-09-24T00:55:42.257Z,99918.21
2022-09-24T00:58:11.181Z,99919.99
2022-09-24T01:00:40.367Z,99911.35
2022-09-24T01:03:13.945Z,99916.71
2022-09-24T01:05:43.695Z,99918.08
2022-09-24T01:08:15.478Z,99916.51
2022-09-24T01:11:19.189Z,99915.86
2022-09-24T01:14:02.143Z,99917.87
2022-09-24T01:16:49.503Z,99916.51
2022-09-24T01:19:45.100Z,99909.45
2022-09-24T01:22:54.313Z,99905.67
2022-09-24T01:25:46.658Z,99908.61
2022-09-24T01:28:55.600Z,99912.19
2022-09-24T01:31:35.233Z,99909.87
2022-09-24T01:34:07.406Z,99910.60
2022-09-24T01:36:36.717Z,99913.86
2022-09-24T01:39:05.565Z,99912.38
2022-09-24T01:41:37.137Z,99921.31
2022-09-24T01:44:07.716Z,99907.00
2022-09-24T01:46:39.772Z,99908.56
2022-09-24T01:49:08.712Z,99909.09
2022-09-24T01:51:44.156Z,99918.34
2022-09-24T01:54:23.604Z,99910.78
2022-09-24T01:57:14.691Z,99917.21
2022-09-24T01:59:48.432Z,99906.67
2022-09-24T02:02:27.016Z,99912.88
2022-09-24T02:05:12.515Z,99909.62
2022-09-24T02:07:53.034Z,99908.05
2022-09-24T02:10:21.660Z,99913.52
2022-09-24T02:12:55.602Z,99914.16
2022-09-24T02:15:32.213Z,99917.84
2022-09-24T02:18:07.247Z,99919.95
2022-09-24T02:20:36.829Z,99921.31
2022-09-24T02:23:08.235Z,99918.47
2022-09-24T02:25:55.500Z,99918.26
2022-09-24T02:28:24.883Z,99917.94
2022-09-24T02:31:10.084Z,99930.98
2022-09-24T02:34:01.321Z,99930.23
2022-09-24T02:36:30.259Z,99928.71
2022-09-24T02:38:59.450Z,99931.07
2022-09-24T02:41:28.130Z,99927.02
2022-09-24T02:43:57.435Z,99936.92
2022-09-24T02:46:26.525Z,99932.44
2022-09-24T02:48:55.318Z,99936.86
2022-09-24T02:51:24.198Z,99937.50
2022-09-24T02:53:52.772Z,99938.34
2022-09-24T02:56:21.498Z,99938.55
2022-09-24T02:58:50.961Z,99931.30
2022-09-24T03:01:20.412Z,99938.14
2022-09-24T03:03:50.458Z,99940.77
2022-09-24T03:06:19.041Z,99943.61
2022-09-24T03:08:49.085Z,99939.83
2022-09-24T03:11:18.970Z,99943.94
2022-09-24T03:13:48.140Z,99942.56
2022-09-24T03:16:17.528Z,99935.61
2022-09-24T03:18:47.861Z,99946.55
2022-09-24T03:21:19.379Z,99940.35
2022-09-24T03:23:48.002Z,99942.13
2022-09-24T03:26:17.721Z,99943.70
2022-09-24T03:28:46.537Z,99946.96
2022-09-24T03:31:15.209Z,99940.64
2022-09-24T03:33:47.979Z,99935.87
2022-09-24T03:36:20.545Z,99947.48
2022-09-24T03:38:51.032Z,99941.61
2022-09-24T03:41:21.956Z,99938.44
2022-09-24T03:43:50.780Z,99947.22
2022-09-24T03:46:19.858Z,99946.70
2022-09-24T03:48:50.159Z,99950.39
2022-09-24T03:51:19.600Z,99949.17
2022-09-24T03:53:48.722Z,99943.38
2022-09-24T03:56:17.436Z,99944.28
2022-09-24T03:58:47.947Z,99940.70
2022-09-24T04:01:21.391Z,99947.86
2022-09-24T04:03:50.785Z,99938.28
2022-09-24T04:06:24.849Z,99948.59
2022-09-24T04:08:49.882Z,99943.44
2022-09-24T04:11:21.383Z,99941.86
2022-09-24T04:13:50.199Z,99943.44
2022-09-24T04:16:20.327Z,99935.44
2022-09-24T04:18:49.137Z,99941.11
2022-09-24T04:21:19.584Z,99942.80
2022-09-24T04:23:48.261Z,99948.59
2022-09-24T04:26:17.396Z,99948.79
2022-09-24T04:28:46.180Z,99944.37
2022-09-24T04:31:15.644Z,99949.31
2022-09-24T04:33:45.758Z,99949.00
2022-09-24T04:36:14.982Z,99950.59
2022-09-24T04:38:45.475Z,99955.22
2022-09-24T04:41:16.038Z,99951.77
2022-09-24T04:43:48.035Z,99953.13
2022-09-24T04:46:18.545Z,99954.33
2022-09-24T04:48:47.377Z,99952.34
2022-09-24T04:51:19.163Z,99958.98
2022-09-24T04:53:50.610Z,99958.98
2022-09-24T04:56:20.372Z,99956.25
2022-09-24T04:58:51.658Z,99958.25
2022-09-24T05:01:21.319Z,99966.90
2022-09-24T05:03:51.574Z,99962.27
2022-09-24T05:06:20.716Z,99959.22
2022-09-24T05:08:50.262Z,99952.78
2022-09-24T05:11:20.249Z,99949.73
2022-09-24T05:13:49.477Z,99958.90
2022-09-24T05:16:18.774Z,99957.33
2022-09-24T05:18:52.709Z,99960.58
2022-09-24T05:21:23.467Z,99961.31
2022-09-24T05:23:52.058Z,99962.48
2022-09-24T05:26:39.634Z,99961.11
2022-09-24T05:29:10.116Z,99962.80
2022-09-24T05:31:38.723Z,99953.74
2022-09-24T05:34:08.483Z,99963.96
2022-09-24T05:36:38.069Z,99966.70
2022-09-24T05:39:07.362Z,99967.66
2022-09-24T05:41:36.593Z,99963.66
2022-09-24T05:44:05.827Z,99960.73
2022-09-24T05:46:35.858Z,99964.10
2022-09-24T05:49:04.495Z,99966.63
2022-09-24T05:51:33.222Z,99962.33
2022-09-24T05:54:03.201Z,99960.86
2022-09-24T05:56:31.899Z,99956.88
2022-09-24T05:59:03.683Z,99957.30
2022-09-24T06:01:32.566Z,99954.36
2022-09-24T06:04:06.284Z,99958.27
2022-09-24T06:06:32.803Z,99959.74
2022-09-24T06:09:04.086Z,99957.99
2022-09-24T06:11:40.056Z,99965.91
2022-09-24T06:14:06.084Z,99963.60
2022-09-24T06:16:35.685Z,99963.39
2022-09-24T06:19:06.035Z,99965.92
2022-09-24T06:21:35.871Z,99968.55
2022-09-24T06:24:05.512Z,99972.02
2022-09-24T06:26:34.721Z,99974.77
2022-09-24T06:29:05.130Z,99973.39
2022-09-24T06:31:35.618Z,99983.30
2022-09-24T06:34:05.233Z,99978.05
2022-09-24T06:36:34.532Z,99980.16
2022-09-24T06:39:04.532Z,99982.84
2022-09-24T06:41:33.693Z,99985.05
2022-09-24T06:44:03.192Z,99986.84
2022-09-24T06:46:32.195Z,99985.70
2022-09-24T06:49:01.318Z,99992.24
2022-09-24T06:51:30.564Z,99993.30
2022-09-24T06:54:00.392Z,99993.84
2022-09-24T06:56:30.720Z,99989.74
2022-09-24T06:58:59.569Z,99996.17
2022-09-24T07:01:29.090Z,99996.70
2022-09-24T07:03:57.950Z,99994.70
2022-09-24T07:06:29.342Z,99998.30
2022-09-24T07:08:59.007Z,100002.20
2022-09-24T07:11:29.126Z,100007.89
2022-09-24T07:14:00.293Z,100003.39
2022-09-24T07:16:30.197Z,99997.66
2022-09-24T07:19:01.263Z,100011.80
2022-09-24T07:21:39.117Z,100010.95
2022-09-24T07:24:10.675Z,100010.84
2022-09-24T07:26:39.967Z,100019.28
2022-09-24T07:29:08.898Z,100016.64
2022-09-24T07:31:39.214Z,100019.91
2022-09-24T07:34:11.600Z,100023.81
2022-09-24T07:36:42.195Z,100024.77
2022-09-24T07:39:11.556Z,100021.39
2022-09-24T07:41:42.365Z,100021.91
2022-09-24T07:44:12.260Z,100025.08
2022-09-24T07:46:41.776Z,100022.16
2022-09-24T07:49:11.164Z,100017.31
2022-09-24T07:51:39.972Z,100023.00
2022-09-24T07:54:12.753Z,100016.24
2022-09-24T07:56:42.952Z,100026.37
2022-09-24T07:59:12.247Z,100022.14
2022-09-24T08:01:42.195Z,100027.63
2022-09-24T08:04:11.224Z,100034.26
2022-09-24T08:06:44.982Z,100019.68
2022-09-24T08:09:11.733Z,100029.75
2022-09-24T08:11:41.971Z,100033.11
2022-09-24T08:14:11.408Z,100026.20
2022-09-24T08:16:41.719Z,100038.73
2022-09-24T08:19:12.988Z,100046.95
2022-09-24T08:21:42.327Z,100036.77
2022-09-24T08:24:12.501Z,100033.16
2022-09-24T08:26:43.607Z,100035.06
2022-09-24T08:29:12.156Z,100036.90
2022-09-24T08:31:42.444Z,100031.77
2022-09-24T08:34:12.403Z,100032.58
2022-09-24T08:36:43.067Z,100038.91
2022-09-24T08:39:13.527Z,100024.23
2022-09-24T08:41:59.611Z,100023.64
2022-09-24T08:44:54.425Z,100029.70
2022-09-24T08:47:42.351Z,100031.72
2022-09-24T08:50:22.105Z,100038.17
2022-09-24T08:53:17.403Z,100030.41
2022-09-24T08:55:55.893Z,100030.04
2022-09-24T08:58:44.100Z,100036.02
2022-09-24T09:01:19.092Z,100030.51
2022-09-24T09:04:06.224Z,100036.92
2022-09-24T09:06:59.167Z,100031.79
2022-09-24T09:09:37.048Z,100030.83
2022-09-24T09:12:12.803Z,100033.17
2022-09-24T09:15:09.660Z,100026.48
2022-09-24T09:18:12.850Z,100031.26
2022-09-24T09:20:47.795Z,100028.05
2022-09-24T09:23:23.088Z,100030.04
2022-09-24T09:25:57.568Z,100035.39
2022-09-24T09:28:27.922Z,100029.38
2022-09-24T09:31:39.997Z,100033.41
2022-09-24T09:34:18.383Z,100032.85
2022-09-24T09:37:04.862Z,100027.46
2022-09-24T09:39:44.574Z,100033.11
2022-09-24T09:42:35.722Z,100033.47
2022-09-24T09:45:39.136Z,100034.10
2022-09-24T09:48:12.172Z,100034.86
2022-09-24T09:50:48.342Z,100026.88
2022-09-24T09:53:28.502Z,100025.08
2022-09-24T09:56:02.772Z,100025.51
2022-09-24T09:58:32.948Z,100030.03
2022-09-24T10:01:10.570Z,100031.62
2022-09-24T10:03:54.646Z,100029.63
2022-09-24T10:06:25.797Z,100026.27
2022-09-24T10:08:56.750Z,100024.23
2022-09-24T10:11:25.855Z,100030.27
2022-09-24T10:14:12.675Z,100029.63
2022-09-24T10:16:44.707Z,100026.35
2022-09-24T10:19:20.565Z,100025.06
2022-09-24T10:21:51.810Z,100029.19
2022-09-24T10:24:23.294Z,100026.97
2022-09-24T10:26:52.273Z,100019.25
2022-09-24T10:29:47.578Z,100019.56
2022-09-24T10:32:21.614Z,100020.18
2022-09-24T10:35:06.519Z,100015.83
2022-09-24T10:37:35.768Z,100015.30
2022-09-24T10:40:15.030Z,100020.35
2022-09-24T10:42:44.227Z,100026.70
2022-09-24T10:45:14.633Z,100026.88
2022-09-24T10:47:57.368Z,100019.31
2022-09-24T10:50:45.594Z,100019.67
2022-09-24T10:53:37.052Z,100020.83
2022-09-24T10:56:23.369Z,100030.89
2022-09-24T10:59:23.484Z,100034.08
2022-09-24T11:02:22.225Z,100035.59
2022-09-24T11:05:07.203Z,100034.22
2022-09-24T11:07:45.575Z,100033.02
2022-09-24T11:10:42.678Z,100032.66
2022-09-24T11:13:35.403Z,100034.75
2022-09-24T11:17:00.173Z,100029.42
2022-09-24T11:20:07.503Z,100024.22
2022-09-24T11:23:14.913Z,100016.53
2022-09-24T11:26:01.195Z,100021.42
2022-09-24T11:28:53.381Z,100018.33
2022-09-24T11:32:04.247Z,100013.46
2022-09-24T11:34:51.886Z,100019.71
2022-09-24T11:38:02.957Z,100033.34
2022-09-24T11:40:55.179Z,100011.08
2022-09-24T11:44:02.933Z,100023.09
2022-09-24T11:46:59.490Z,100023.47
2022-09-24T11:49:59.658Z,100025.02
2022-09-24T11:52:38.685Z,100026.47
2022-09-24T11:55:33.317Z,100033.27
2022-09-24T11:58:24.720Z,100025.91
2022-09-24T12:01:00.877Z,100033.61
2022-09-24T12:03:38.809Z,100043.52
2022-09-24T12:06:15.423Z,100041.84
2022-09-24T12:09:21.639Z,100046.41
2022-09-24T12:11:57.084Z,100058.27
2022-09-24T12:14:29.688Z,100061.98
2022-09-24T12:17:05.490Z,100048.78
2022-09-24T12:19:49.230Z,100045.92
2022-09-24T12:22:18.449Z,100039.05
2022-09-24T12:24:51.618Z,100038.73
2022-09-24T12:27:35.978Z,100042.64
2022-09-24T12:30:53.162Z,100043.17
2022-09-24T12:33:57.710Z,100046.77
2022-09-24T12:37:03.971Z,100046.77
2022-09-24T12:39:45.644Z,100044.77
2022-09-24T12:42:14.324Z,100042.91
2022-09-24T12:44:48.029Z,100043.91
2022-09-24T12:47:25.063Z,100046.80
2022-09-24T12:50:00.302Z,100049.23
2022-09-24T12:52:40.735Z,100043.83
2022-09-24T12:55:25.319Z,100038.73
2022-09-24T12:58:00.493Z,100035.45
2022-09-24T13:00:42.380Z,100034.30
2022-09-24T13:03:40.772Z,100035.45
2022-09-24T13:06:34.323Z,100039.97
2022-09-24T13:09:04.668Z,100037.54
2022-09-24T13:11:36.963Z,100036.47
2022-09-24T13:14:15.635Z,100032.66
2022-09-24T13:16:49.183Z,100032.75
2022-09-24T13:19:40.751Z,100026.72
2022-09-24T13:22:30.035Z,100025.97
2022-09-24T13:25:16.048Z,100036.39
2022-09-24T13:27:48.344Z,100038.03
2022-09-24T13:30:21.318Z,100039.05
2022-09-24T13:33:01.167Z,100032.07
2022-09-24T13:35:35.362Z,100033.45
2022-09-24T13:38:28.866Z,100022.98
2022-09-24T13:41:03.772Z,100031.23
2022-09-24T13:44:01.393Z,100027.30
2022-09-24T13:46:30.876Z,100036.39
2022-09-24T13:49:10.841Z,100031.42
2022-09-24T13:51:40.285Z,100030.16
2022-09-24T13:54:26.250Z,100027.73
2022-09-24T13:57:17.689Z,100032.38
2022-09-24T13:59:46.629Z,100035.55
2022-09-24T14:02:27.265Z,100025.08
2022-09-24T14:04:58.212Z,100031.85
2022-09-24T14:07:27.280Z,100028.26
2022-09-24T14:10:13.964Z,100034.52
2022-09-24T14:12:43.305Z,100037.98
2022-09-24T14:15:16.987Z,100045.39
2022-09-24T14:17:59.318Z,100042.55
2022-09-24T14:20:32.291Z,100040.78
2022-09-24T14:23:01.218Z,100046.73
2022-09-24T14:25:31.222Z,100045.80
2022-09-24T14:28:01.338Z,100038.61
2022-09-24T14:30:30.367Z,100041.89
2022-09-24T14:33:09.434Z,100038.39
2022-09-24T14:35:38.773Z,100038.16
2022-09-24T14:38:35.819Z,100039.32
2022-09-24T14:41:08.594Z,100040.16
2022-09-24T14:43:53.789Z,100037.41
2022-09-24T14:46:27.425Z,100044.06
2022-09-24T14:49:09.303Z,100045.53
2022-09-24T14:51:38.879Z,100039.58
2022-09-24T14:54:35.289Z,100045.08
2022-09-24T14:57:21.609Z,100052.27
2022-09-24T14:59:50.290Z,100060.73
2022-09-24T15:02:36.859Z,100064.69
2022-09-24T15:05:08.282Z,100065.88
2022-09-24T15:07:37.863Z,100078.92
2022-09-24T15:10:07.358Z,100083.08
2022-09-24T15:12:37.589Z,100077.08
2022-09-24T15:15:24.849Z,100092.42
2022-09-24T15:17:55.151Z,100103.45
2022-09-24T15:20:24.145Z,100109.72
2022-09-24T15:22:53.109Z,100111.99
2022-09-24T15:25:22.045Z,100105.55
2022-09-24T15:27:53.286Z,100108.84
2022-09-24T15:30:23.857Z,100119.96
2022-09-24T15:32:53.744Z,100107.11
2022-09-24T15:35:22.738Z,100108.08
2022-09-24T15:37:51.927Z,100109.98
2022-09-24T15:40:24.296Z,100106.16
2022-09-24T15:42:54.117Z,100107.64
2022-09-24T15:45:24.880Z,100114.58
2022-09-24T15:47:56.227Z,100119.96
2022-09-24T15:50:26.115Z,100111.63
2022-09-24T15:53:00.278Z,100111.30
2022-09-24T15:55:31.253Z,100107.93
2022-09-24T15:58:02.168Z,100117.95
2022-09-24T16:00:32.730Z,100118.06
2022-09-24T16:03:02.212Z,100110.56
2022-09-24T16:05:31.121Z,100113.20
2022-09-24T16:08:02.929Z,100106.24
2022-09-24T16:10:32.417Z,100107.30
2022-09-24T16:13:04.765Z,100113.10
2022-09-24T16:15:35.487Z,100110.04
2022-09-24T16:18:11.776Z,100112.16
2022-09-24T16:20:41.382Z,100118.06
2022-09-24T16:23:15.397Z,100121.02
2022-09-24T16:25:59.235Z,100115.63
2022-09-24T16:28:30.185Z,100117.20
2022-09-24T16:30:59.828Z,100118.27
2022-09-24T16:33:28.689Z,100118.47
2022-09-24T16:35:57.354Z,100123.11
2022-09-24T16:38:26.532Z,100125.53
2022-09-24T16:41:02.685Z,100129.02
2022-09-24T16:43:31.995Z,100126.80
2022-09-24T16:46:03.676Z,100129.44
2022-09-24T16:48:35.315Z,100133.87
2022-09-24T16:51:09.190Z,100126.70
2022-09-24T16:53:38.174Z,100129.75
2022-09-24T16:56:14.320Z,100138.51
2022-09-24T16:58:44.088Z,100134.39
2022-09-24T17:01:17.476Z,100134.19
2022-09-24T17:03:58.378Z,100137.24
2022-09-24T17:06:30.056Z,100138.30
2022-09-24T17:09:18.925Z,100135.87
2022-09-24T17:11:49.241Z,100142.73
2022-09-24T17:14:19.100Z,100140.62
2022-09-24T17:16:49.325Z,100138.94
2022-09-24T17:19:18.780Z,100134.19
2022-09-24T17:21:51.798Z,100134.92
2022-09-24T17:24:22.246Z,100136.07
2022-09-24T17:26:51.785Z,100127.63
2022-09-24T17:29:22.115Z,100136.69
2022-09-24T17:31:52.453Z,100135.37
2022-09-24T17:34:21.848Z,100140.11
2022-09-24T17:36:50.864Z,100136.30
2022-09-24T17:39:20.532Z,100137.03
2022-09-24T17:41:49.477Z,100141.67
2022-09-24T17:44:19.634Z,100143.24
2022-09-24T17:46:48.562Z,100137.33
2022-09-24T17:49:19.752Z,100141.44
2022-09-24T17:51:49.178Z,100150.19
2022-09-24T17:54:22.752Z,100151.66
2022-09-24T17:56:53.560Z,100157.22
2022-09-24T17:59:26.644Z,100137.61
2022-09-24T18:01:56.101Z,100147.41
2022-09-24T18:04:27.831Z,100151.60
2022-09-24T18:06:56.557Z,100148.42
2022-09-24T18:09:27.150Z,100148.95
2022-09-24T18:11:57.961Z,100151.05
2022-09-24T18:14:27.863Z,100152.42
2022-09-24T18:16:59.420Z,100154.84
2022-09-24T18:19:29.645Z,100152.10
2022-09-24T18:21:59.763Z,100160.00
2022-09-24T18:24:28.791Z,100160.52
2022-09-24T18:26:58.821Z,100161.37
2022-09-24T18:29:27.916Z,100164.84
2022-09-24T18:31:57.909Z,100161.57
2022-09-24T18:34:26.894Z,100159.67
2022-09-24T18:36:56.440Z,100155.56
2022-09-24T18:39:26.239Z,100159.59
2022-09-24T18:41:55.970Z,100156.13
2022-09-24T18:44:26.453Z,100154.55
2022-09-24T18:46:56.378Z,100152.97
2022-09-24T18:49:26.605Z,100157.61
2022-09-24T18:51:55.823Z,100154.02
2022-09-24T18:54:25.143Z,100156.23
2022-09-24T18:56:54.851Z,100153.81
2022-09-24T18:59:24.149Z,100158.89
2022-09-24T19:01:52.924Z,100153.73
2022-09-24T19:04:28.033Z,100155.73
2022-09-24T19:07:02.546Z,100159.84
2022-09-24T19:09:32.032Z,100164.48
2022-09-24T19:12:01.864Z,100173.75
2022-09-24T19:14:32.212Z,100171.86
2022-09-24T19:17:05.115Z,100171.33
2022-09-24T19:19:36.435Z,100179.03
2022-09-24T19:22:06.036Z,100177.45
2022-09-24T19:24:35.291Z,100174.72
2022-09-24T19:27:05.278Z,100175.56
2022-09-24T19:29:35.687Z,100173.88
2022-09-24T19:32:05.852Z,100170.08
2022-09-24T19:34:35.369Z,100159.33
2022-09-24T19:37:05.209Z,100168.91
2022-09-24T19:39:34.743Z,100167.02
2022-09-24T19:42:05.249Z,100172.30
2022-09-24T19:44:36.447Z,100172.70
2022-09-24T19:47:08.007Z,100175.56
2022-09-24T19:49:38.063Z,100176.09
2022-09-24T19:52:07.755Z,100183.67
2022-09-24T19:54:37.219Z,100179.44
2022-09-24T19:57:07.323Z,100177.84
2022-09-24T19:59:38.137Z,100180.14
2022-09-24T20:02:10.991Z,100181.91
2022-09-24T20:04:42.104Z,100178.73
2022-09-24T20:07:17.997Z,100187.68
2022-09-24T20:09:48.992Z,100186.92
2022-09-24T20:12:19.023Z,100191.11
2022-09-24T20:14:47.713Z,100198.36
2022-09-24T20:17:17.903Z,100194.10
2022-09-24T20:19:51.898Z,100193.86
2022-09-24T20:22:22.592Z,100197.33
2022-09-24T20:24:51.582Z,100197.41
2022-09-24T20:27:40.323Z,100195.47
2022-09-24T20:30:10.568Z,100196.04
2022-09-24T20:32:43.257Z,100207.39
2022-09-24T20:35:12.786Z,100205.05
2022-09-24T20:37:46.163Z,100207.14
2022-09-24T20:40:16.719Z,100197.44
2022-09-24T20:42:46.304Z,100206.50
2022-09-24T20:45:17.061Z,100209.31
2022-09-24T20:47:49.597Z,100211.72
2022-09-24T20:50:19.922Z,100209.51
2022-09-24T20:52:49.086Z,100209.70
2022-09-24T20:55:18.037Z,100212.97
2022-09-24T20:57:48.928Z,100217.07
2022-09-24T21:00:18.215Z,100213.48
2022-09-24T21:02:47.149Z,100212.31
2022-09-24T21:05:16.848Z,100209.78
2022-09-24T21:07:46.561Z,100212.39
2022-09-24T21:10:17.504Z,100218.27
2022-09-24T21:12:50.962Z,100213.70
2022-09-24T21:15:19.135Z,100221.27
2022-09-24T21:18:11.572Z,100221.79
2022-09-24T21:20:21.063Z,100221.98
2022-09-24T21:22:50.312Z,100217.88
2022-09-24T21:25:49.402Z,100212.08
2022-09-24T21:27:52.976Z,100210.59
2022-09-24T21:30:22.650Z,100219.52
2022-09-24T21:32:51.806Z,100213.72
2022-09-24T21:35:21.288Z,100218.67
2022-09-24T21:37:51.870Z,100229.62
2022-09-24T21:40:21.757Z,100222.12
2022-09-24T21:42:51.823Z,100217.86
2022-09-24T21:45:20.853Z,100220.59
2022-09-24T21:47:52.305Z,100219.42
2022-09-24T21:50:22.358Z,100221.52
2022-09-24T21:52:53.783Z,100228.88
2022-09-24T21:55:23.482Z,100235.26
2022-09-24T21:57:52.941Z,100230.89
2022-09-24T22:00:24.008Z,100234.34
2022-09-24T22:02:53.914Z,100236.11
2022-09-24T22:05:22.817Z,100239.42
2022-09-24T22:07:53.946Z,100235.91
2022-09-24T22:10:23.900Z,100232.52
2022-09-24T22:12:53.271Z,100234.60
2022-09-24T22:15:22.686Z,100232.39
2022-09-24T22:17:51.747Z,100227.31
2022-09-24T22:20:21.032Z,100237.27
2022-09-24T22:22:50.136Z,100236.61
2022-09-24T22:25:18.940Z,100229.98
2022-09-24T22:27:47.747Z,100239.93
2022-09-24T22:30:16.656Z,100240.45
2022-09-24T22:32:47.486Z,100236.02
2022-09-24T22:35:38.345Z,100240.31
2022-09-24T22:38:06.653Z,100241.55
2022-09-24T22:40:35.954Z,100239.01
2022-09-24T22:43:05.296Z,100237.64
2022-09-24T22:45:34.221Z,100233.92
2022-09-24T22:48:05.179Z,100237.89
2022-09-24T22:50:34.222Z,100239.65
2022-09-24T22:53:03.539Z,100250.58
2022-09-24T22:55:33.106Z,100242.41
2022-09-24T22:58:02.295Z,100242.92
2022-09-24T23:00:31.042Z,100251.83
2022-09-24T23:03:00.346Z,100239.07
2022-09-24T23:05:31.335Z,100239.27
2022-09-24T23:08:00.205Z,100236.53
2022-09-24T23:10:29.864Z,100238.28
2022-09-24T23:12:58.828Z,100240.69
2022-09-24T23:15:28.419Z,100239.32
2022-09-24T23:17:57.964Z,100234.89
2022-09-24T23:20:27.283Z,100241.39
2022-09-24T23:22:56.321Z,100234.56
2022-09-24T23:25:25.894Z,100247.52
2022-09-24T23:27:55.546Z,100235.55
2022-09-24T23:30:26.074Z,100235.36
2022-09-24T23:32:56.521Z,100231.06
2022-09-24T23:35:26.239Z,100232.11
2022-09-24T23:37:55.120Z,100239.97
2022-09-24T23:40:24.335Z,100227.02
2022-09-24T23:42:53.391Z,100226.50
2022-09-24T23:45:22.034Z,100230.93
2022-09-24T23:47:52.535Z,100235.55
2022-09-24T23:50:21.454Z,100231.97
2022-09-24T23:52:50.655Z,100238.80
2022-09-24T23:55:21.620Z,100234.38
2022-09-24T23:57:50.733Z,100229.75
